createdAt,value
2023-01-27T00:01:36.540Z,101018.13
2023-01-27T00:06:37.717Z,101011.72
2023-01-27T00:11:57.801Z,101006.56
2023-01-27T00:16:58.989Z,101012.50
2023-01-27T00:22:26.046Z,101010.50
2023-01-27T00:27:27.281Z,101017.28
2023-01-27T00:32:49.175Z,101007.69
2023-01-27T00:37:50.354Z,101008.25
2023-01-27T00:42:51.587Z,101014.69
2023-01-27T00:47:52.924Z,101024.97
2023-01-27T00:52:54.207Z,101025.66
2023-01-27T00:57:57.689Z,101035.81
2023-01-27T01:02:58.931Z,101030.22
2023-01-27T01:08:00.242Z,101040.16
2023-01-27T01:13:01.547Z,101042.31
2023-01-27T01:18:02.748Z,101036.53
2023-01-27T01:23:03.942Z,101041.28
2023-01-27T01:28:08.133Z,101044.44
2023-01-27T01:33:09.391Z,101049.63
2023-01-27T01:38:10.574Z,101054.38
2023-01-27T01:43:13.813Z,101055.63
2023-01-27T01:48:15.103Z,101050.22
2023-01-27T01:53:16.291Z,101045.59
2023-01-27T01:58:17.482Z,101048.19
2023-01-27T02:03:18.697Z,101047.75
2023-01-27T02:08:19.903Z,101044.34
2023-01-27T02:13:21.155Z,101062.31
2023-01-27T02:18:22.461Z,101057.31
2023-01-27T02:23:23.744Z,101054.38
2023-01-27T02:28:24.999Z,101052.81
2023-01-27T02:33:26.198Z,101051.00
2023-01-27T02:38:27.492Z,101052.00
2023-01-27T02:43:30.721Z,101048.63
2023-01-27T02:48:31.968Z,101054.38
2023-01-27T02:53:33.255Z,101062.72
2023-01-27T02:58:34.574Z,101073.09
2023-01-27T03:03:35.786Z,101068.13
2023-01-27T03:08:37.056Z,101065.41
2023-01-27T03:13:38.298Z,101067.22
2023-01-27T03:18:39.554Z,101064.50
2023-01-27T03:23:40.816Z,101065.28
2023-01-27T03:28:42.076Z,101075.88
2023-01-27T03:33:43.844Z,101086.25
2023-01-27T03:39:03.989Z,101089.84
2023-01-27T03:44:23.743Z,101079.91
2023-01-27T03:49:27.015Z,101087.69
2023-01-27T03:54:31.760Z,101089.50
2023-01-27T03:59:33.046Z,101091.28
2023-01-27T04:04:52.929Z,101085.38
2023-01-27T04:09:54.142Z,101079.44
2023-01-27T04:14:55.324Z,101091.59
2023-01-27T04:19:57.192Z,101077.47
2023-01-27T04:24:58.479Z,101081.53
2023-01-27T04:30:00.414Z,101083.91
2023-01-27T04:35:01.679Z,101080.28
2023-01-27T04:40:05.772Z,101085.31
2023-01-27T04:45:07.029Z,101085.31
2023-01-27T04:50:08.468Z,101088.94
2023-01-27T04:55:09.721Z,101090.72
2023-01-27T05:00:10.923Z,101096.72
2023-01-27T05:05:12.493Z,101108.66
2023-01-27T05:10:13.919Z,101108.38
2023-01-27T05:15:15.416Z,101109.28
2023-01-27T05:20:16.718Z,101114.63
2023-01-27T05:25:18.060Z,101116.38
2023-01-27T05:30:19.563Z,101115.38
2023-01-27T05:35:20.814Z,101121.91
2023-01-27T05:40:22.078Z,101133.22
2023-01-27T05:45:23.309Z,101130.25
2023-01-27T05:50:24.504Z,101080.34
2023-01-27T05:55:25.748Z,101125.31
2023-01-27T06:00:27.951Z,101139.84
2023-01-27T06:05:29.240Z,101136.25
2023-01-27T06:10:31.957Z,101147.06
2023-01-27T06:15:33.153Z,101144.59
2023-01-27T06:20:34.328Z,101142.00
2023-01-27T06:25:35.515Z,101136.03
2023-01-27T06:30:36.792Z,101146.34
2023-01-27T06:35:37.998Z,101148.34
2023-01-27T06:40:39.182Z,101156.13
2023-01-27T06:45:40.346Z,101158.50
2023-01-27T06:50:41.564Z,101164.03
2023-01-27T06:55:43.693Z,101165.22
2023-01-27T07:00:44.892Z,101168.38
2023-01-27T07:05:46.148Z,101168.16
2023-01-27T07:10:47.369Z,101168.94
2023-01-27T07:15:49.110Z,101177.31
2023-01-27T07:20:50.319Z,101184.88
2023-01-27T07:25:51.518Z,101188.00
2023-01-27T07:30:52.778Z,101197.47
2023-01-27T07:35:55.289Z,101189.63
2023-01-27T07:40:58.023Z,101186.59
2023-01-27T07:45:59.251Z,101194.19
2023-01-27T07:51:00.528Z,101203.56
2023-01-27T07:56:01.755Z,101202.53
2023-01-27T08:01:03.224Z,101201.97
2023-01-27T08:06:05.088Z,101206.16
2023-01-27T08:11:07.992Z,101200.97
2023-01-27T08:16:12.758Z,101194.75
2023-01-27T08:21:14.006Z,101206.28
2023-01-27T08:26:15.232Z,101199.00
2023-01-27T08:31:16.532Z,101209.88
2023-01-27T08:36:17.810Z,101210.13
2023-01-27T08:41:19.088Z,101212.78
2023-01-27T08:46:20.343Z,101209.56
2023-01-27T08:51:21.621Z,101212.34
2023-01-27T08:56:22.809Z,101211.56
2023-01-27T09:01:24.032Z,101216.00
2023-01-27T09:06:25.452Z,101216.03
2023-01-27T09:11:26.688Z,101211.38
2023-01-27T09:16:28.197Z,101216.72
2023-01-27T09:21:29.586Z,101219.53
2023-01-27T09:26:30.821Z,101229.06
2023-01-27T09:31:32.062Z,101231.53
2023-01-27T09:36:33.270Z,101236.19
2023-01-27T09:41:34.525Z,101243.28
2023-01-27T09:46:35.738Z,101240.69
2023-01-27T09:51:36.939Z,101241.81
2023-01-27T09:56:38.174Z,101266.97
2023-01-27T10:01:39.373Z,101269.56
2023-01-27T10:06:42.147Z,101276.97
2023-01-27T10:11:43.333Z,101263.72
2023-01-27T10:16:44.844Z,101267.13
2023-01-27T10:21:46.066Z,101260.47
2023-01-27T10:26:47.257Z,101260.34
2023-01-27T10:31:48.529Z,101266.59
2023-01-27T10:36:49.923Z,101278.59
2023-01-27T10:41:51.149Z,101278.91
2023-01-27T10:46:52.648Z,101280.78
2023-01-27T10:51:53.863Z,101272.72
2023-01-27T10:56:55.061Z,101273.06
2023-01-27T11:01:56.406Z,101276.16
2023-01-27T11:06:57.644Z,101273.25
2023-01-27T11:11:58.931Z,101275.97
2023-01-27T11:17:00.147Z,101285.34
2023-01-27T11:22:08.076Z,101278.53
2023-01-27T11:27:09.992Z,101276.28
2023-01-27T11:32:11.231Z,101258.66
2023-01-27T11:37:13.440Z,101260.34
2023-01-27T11:42:14.698Z,101241.84
2023-01-27T11:47:15.922Z,101247.06
2023-01-27T11:52:17.164Z,101232.56
2023-01-27T11:57:18.917Z,101242.63
2023-01-27T12:02:20.090Z,101235.00
2023-01-27T12:07:23.274Z,101249.09
2023-01-27T12:12:24.642Z,101240.19
2023-01-27T12:17:25.828Z,101238.16
2023-01-27T12:22:27.026Z,101235.78
2023-01-27T12:27:28.278Z,101232.19
2023-01-27T12:32:29.501Z,101218.94
2023-01-27T12:37:34.786Z,101222.00
2023-01-27T12:42:36.172Z,101211.41
2023-01-27T12:47:37.387Z,101214.53
2023-01-27T12:52:38.613Z,101201.91
2023-01-27T12:57:39.831Z,101209.47
2023-01-27T13:02:41.054Z,101220.28
2023-01-27T13:07:42.316Z,101216.00
2023-01-27T13:12:43.523Z,101218.69
2023-01-27T13:17:45.106Z,101224.91
2023-01-27T13:22:46.337Z,101229.16
2023-01-27T13:27:47.583Z,101232.88
2023-01-27T13:32:48.822Z,101242.09
2023-01-27T13:37:50.033Z,101237.00
2023-01-27T13:42:51.292Z,101245.69
2023-01-27T13:47:52.569Z,101247.09
2023-01-27T13:52:53.798Z,101240.38
2023-01-27T13:57:55.077Z,101249.00
2023-01-27T14:02:56.359Z,101251.72
2023-01-27T14:07:57.613Z,101251.72
2023-01-27T14:12:58.936Z,101257.72
2023-01-27T14:18:00.124Z,101263.63
2023-01-27T14:23:01.279Z,101265.00
2023-01-27T14:28:03.379Z,101259.47
2023-01-27T14:33:06.455Z,101268.06
2023-01-27T14:38:07.714Z,101268.75
2023-01-27T14:43:08.921Z,101272.38
2023-01-27T14:48:10.183Z,101274.16
2023-01-27T14:53:11.431Z,101280.66
2023-01-27T14:58:12.653Z,101275.88
2023-01-27T15:03:13.857Z,101284.38
2023-01-27T15:08:15.101Z,101287.31
2023-01-27T15:13:16.896Z,101294.00
2023-01-27T15:18:18.091Z,101298.53
2023-01-27T15:23:19.333Z,101301.69
2023-01-27T15:28:20.694Z,101299.28
2023-01-27T15:33:21.893Z,101313.31
2023-01-27T15:38:23.104Z,101316.72
2023-01-27T15:43:25.470Z,101328.81
2023-01-27T15:48:27.249Z,101344.59
2023-01-27T15:53:30.007Z,101347.09
2023-01-27T15:58:33.150Z,101347.56
2023-01-27T16:03:35.110Z,101353.19
2023-01-27T16:08:36.333Z,101347.44
2023-01-27T16:13:37.561Z,101363.69
2023-01-27T16:18:38.792Z,101371.34
2023-01-27T16:23:39.964Z,101367.16
2023-01-27T16:28:41.191Z,101374.44
2023-01-27T16:33:42.389Z,101384.91
2023-01-27T16:38:43.918Z,101388.38
2023-01-27T16:43:45.180Z,101395.25
2023-01-27T16:48:46.399Z,101402.00
2023-01-27T16:53:49.713Z,101392.47
2023-01-27T16:58:52.984Z,101400.50
2023-01-27T17:03:54.219Z,101404.75
2023-01-27T17:08:55.454Z,101410.25
2023-01-27T17:13:56.707Z,101408.34
2023-01-27T17:19:03.549Z,101409.38
2023-01-27T17:24:04.821Z,101418.59
2023-01-27T17:29:06.119Z,101423.44
2023-01-27T17:34:07.325Z,101422.81
2023-01-27T17:39:08.556Z,101423.16
2023-01-27T17:44:09.730Z,101423.94
2023-01-27T17:49:10.944Z,101431.97
2023-01-27T17:54:12.348Z,101423.94
2023-01-27T17:59:13.600Z,101423.59
2023-01-27T18:04:14.856Z,101424.22
2023-01-27T18:09:16.011Z,101416.13
2023-01-27T18:14:17.906Z,101420.66
2023-01-27T18:19:20.478Z,101435.88
2023-01-27T18:24:21.783Z,101439.16
2023-01-27T18:29:24.274Z,101441.69
2023-01-27T18:34:25.569Z,101436.44
2023-01-27T18:39:26.826Z,101450.00
2023-01-27T18:44:35.539Z,101437.97
2023-01-27T18:49:37.279Z,101442.72
2023-01-27T18:54:38.612Z,101448.50
2023-01-27T18:59:42.707Z,101450.88
2023-01-27T19:04:43.928Z,101459.25
2023-01-27T19:09:45.098Z,101467.41
2023-01-27T19:14:48.313Z,101465.03
2023-01-27T19:19:56.802Z,101455.84
2023-01-27T19:24:57.989Z,101458.91
2023-01-27T19:29:59.180Z,101456.31
2023-01-27T19:35:00.445Z,101455.13
2023-01-27T19:40:02.709Z,101460.38
2023-01-27T19:45:03.891Z,101452.81
2023-01-27T19:50:05.251Z,101456.84
2023-01-27T19:55:06.448Z,101465.63
2023-01-27T20:00:07.720Z,101482.81
2023-01-27T20:05:08.951Z,101490.47
2023-01-27T20:10:10.176Z,101495.66
2023-01-27T20:15:12.361Z,101501.44
2023-01-27T20:20:13.764Z,101501.28
2023-01-27T20:25:15.354Z,101506.47
2023-01-27T20:30:16.805Z,101512.66
2023-01-27T20:35:18.025Z,101511.66
2023-01-27T20:40:19.240Z,101504.88
2023-01-27T20:45:20.580Z,101501.06
2023-01-27T20:50:22.300Z,101511.25
2023-01-27T20:55:24.702Z,101506.47
2023-01-27T21:00:26.990Z,101516.06
2023-01-27T21:05:28.195Z,101515.66
2023-01-27T21:10:29.566Z,101525.06
2023-01-27T21:15:30.840Z,101530.84
2023-01-27T21:20:32.046Z,101528.69
2023-01-27T21:25:34.994Z,101533.72
2023-01-27T21:30:36.274Z,101528.13
2023-01-27T21:35:37.565Z,101525.78
2023-01-27T21:40:40.212Z,101529.56
2023-01-27T21:45:41.435Z,101529.00
2023-01-27T21:50:42.658Z,101521.63
2023-01-27T21:55:43.836Z,101522.03
2023-01-27T22:00:45.175Z,101525.44
2023-01-27T22:05:46.438Z,101525.88
2023-01-27T22:10:47.626Z,101530.44
2023-01-27T22:15:48.836Z,101521.72
2023-01-27T22:20:50.076Z,101522.34
2023-01-27T22:25:53.619Z,101528.75
2023-01-27T22:30:55.158Z,101530.78
2023-01-27T22:35:56.723Z,101533.19
2023-01-27T22:40:57.976Z,101530.00
2023-01-27T22:45:59.221Z,101532.81
2023-01-27T22:51:00.451Z,101530.00
2023-01-27T22:56:01.649Z,101530.00
2023-01-27T23:01:02.972Z,101526.25
2023-01-27T23:06:04.458Z,101520.69
2023-01-27T23:11:05.660Z,101526.94
2023-01-27T23:16:06.877Z,101523.22
2023-01-27T23:21:10.170Z,101529.28
2023-01-27T23:26:11.396Z,101532.53
2023-01-27T23:31:12.780Z,101534.75
2023-01-27T23:36:14.059Z,101527.03
2023-01-27T23:41:18.385Z,101530.22
2023-01-27T23:46:19.745Z,101526.66
2023-01-27T23:51:21.020Z,101534.06
2023-01-27T23:56:22.258Z,101535.25
